createdAt,value
2022-12-23T00:00:25.451Z,5.13
2022-12-23T00:02:53.558Z,4.97
2022-12-23T00:05:21.569Z,8.70
2022-12-23T00:07:49.501Z,10.97
2022-12-23T00:10:17.430Z,2.03
2022-12-23T00:13:02.902Z,6.03
2022-12-23T00:15:32.167Z,4.60
2022-12-23T00:18:00.115Z,1.67
2022-12-23T00:20:28.030Z,1.97
2022-12-23T00:23:07.774Z,2.10
2022-12-23T00:25:42.103Z,1.10
2022-12-23T00:28:11.728Z,1.60
2022-12-23T00:30:45.907Z,0.90
2022-12-23T00:33:13.921Z,0.80
2022-12-23T00:35:41.820Z,0.73
2022-12-23T00:38:09.849Z,1.07
2022-12-23T00:40:55.325Z,0.80
2022-12-23T00:43:23.294Z,0.80
2022-12-23T00:45:52.599Z,2.03
2022-12-23T00:48:38.642Z,2.30
2022-12-23T00:51:06.883Z,0.80
2022-12-23T00:53:34.811Z,0.80
2022-12-23T00:56:02.730Z,1.03
2022-12-23T00:58:31.959Z,1.00
2022-12-23T01:01:19.056Z,1.00
2022-12-23T01:04:04.247Z,1.60
2022-12-23T01:06:32.438Z,0.80
2022-12-23T01:09:00.376Z,3.63
2022-12-23T01:11:28.283Z,1.60
2022-12-23T01:13:56.229Z,1.70
2022-12-23T01:16:25.535Z,1.43
2022-12-23T01:18:53.401Z,3.17
2022-12-23T01:21:21.428Z,1.30
2022-12-23T01:23:49.300Z,1.53
2022-12-23T01:26:17.649Z,1.53
2022-12-23T01:28:45.569Z,5.10
2022-12-23T01:31:13.553Z,3.87
2022-12-23T01:33:42.841Z,1.23
2022-12-23T01:36:11.631Z,1.67
2022-12-23T01:38:39.536Z,4.10
2022-12-23T01:41:07.442Z,1.50
2022-12-23T01:43:45.382Z,1.37
2022-12-23T01:46:13.428Z,1.47
2022-12-23T01:48:42.792Z,1.37
2022-12-23T01:51:12.938Z,1.60
2022-12-23T01:53:41.829Z,2.20
2022-12-23T01:56:11.504Z,2.03
2022-12-23T01:58:40.026Z,1.20
2022-12-23T02:01:25.516Z,3.00
2022-12-23T02:03:56.585Z,1.47
2022-12-23T02:06:44.413Z,1.30
2022-12-23T02:09:22.206Z,1.40
2022-12-23T02:12:21.553Z,4.07
2022-12-23T02:15:22.438Z,1.03
2022-12-23T02:17:57.394Z,1.27
2022-12-23T02:20:44.188Z,3.90
2022-12-23T02:23:39.755Z,2.83
2022-12-23T02:26:23.418Z,1.00
2022-12-23T02:29:04.231Z,3.20
2022-12-23T02:31:35.771Z,2.43
2022-12-23T02:34:05.411Z,2.97
2022-12-23T02:36:38.736Z,1.40
2022-12-23T02:39:08.657Z,1.20
2022-12-23T02:41:40.053Z,5.33
2022-12-23T02:44:11.651Z,3.70
2022-12-23T02:46:43.472Z,3.00
2022-12-23T02:49:12.732Z,3.93
2022-12-23T02:51:43.761Z,4.80
2022-12-23T02:54:14.374Z,1.83
2022-12-23T02:56:44.296Z,1.40
2022-12-23T02:59:14.248Z,1.57
2022-12-23T03:01:43.645Z,1.40
2022-12-23T03:04:11.660Z,1.60
2022-12-23T03:06:41.226Z,1.43
2022-12-23T03:09:09.203Z,1.30
2022-12-23T03:11:42.588Z,1.43
2022-12-23T03:14:52.066Z,1.60
2022-12-23T03:17:28.582Z,1.40
2022-12-23T03:20:01.294Z,1.73
2022-12-23T03:22:33.782Z,1.70
2022-12-23T03:25:03.878Z,1.77
2022-12-23T03:27:34.139Z,1.43
2022-12-23T03:30:03.801Z,1.50
2022-12-23T03:32:34.795Z,1.53
2022-12-23T03:35:02.755Z,1.53
2022-12-23T03:37:31.557Z,1.30
2022-12-23T03:40:01.791Z,2.10
2022-12-23T03:42:30.625Z,2.60
2022-12-23T03:45:36.273Z,1.67
2022-12-23T03:47:50.256Z,2.20
2022-12-23T03:50:19.030Z,2.67
2022-12-23T03:52:49.197Z,1.40
2022-12-23T03:55:18.639Z,1.13
2022-12-23T03:57:48.403Z,1.47
2022-12-23T04:00:16.417Z,1.63
2022-12-23T04:02:49.815Z,1.50
2022-12-23T04:05:21.406Z,1.50
2022-12-23T04:07:51.716Z,1.97
2022-12-23T04:10:19.889Z,2.40
2022-12-23T04:12:47.771Z,1.67
2022-12-23T04:15:20.260Z,1.50
2022-12-23T04:17:49.657Z,1.60
2022-12-23T04:20:17.900Z,1.90
2022-12-23T04:22:45.815Z,1.47
2022-12-23T04:25:13.873Z,1.47
2022-12-23T04:27:41.818Z,1.47
2022-12-23T04:30:11.129Z,3.30
2022-12-23T04:32:39.064Z,1.53
2022-12-23T04:35:09.042Z,1.53
2022-12-23T04:37:37.077Z,2.60
2022-12-23T04:40:05.868Z,3.60
2022-12-23T04:42:33.771Z,2.27
2022-12-23T04:45:01.765Z,1.30
2022-12-23T04:47:29.668Z,2.60
2022-12-23T04:49:57.562Z,3.13
2022-12-23T04:52:26.818Z,1.90
2022-12-23T04:54:54.765Z,2.13
2022-12-23T04:57:22.643Z,3.67
2022-12-23T04:59:50.551Z,1.97
2022-12-23T05:02:18.529Z,1.93
2022-12-23T05:04:46.527Z,2.37
2022-12-23T05:07:14.498Z,1.60
2022-12-23T05:09:43.736Z,2.13
2022-12-23T05:12:11.600Z,2.20
2022-12-23T05:14:39.530Z,2.47
2022-12-23T05:17:08.101Z,2.27
2022-12-23T05:19:36.140Z,2.97
2022-12-23T05:22:04.051Z,2.00
2022-12-23T05:24:31.932Z,1.57
2022-12-23T05:27:01.208Z,1.80
2022-12-23T05:29:29.131Z,1.47
2022-12-23T05:31:57.072Z,1.77
2022-12-23T05:34:25.040Z,1.50
2022-12-23T05:36:52.979Z,1.30
2022-12-23T05:39:20.894Z,2.10
2022-12-23T05:41:48.786Z,1.50
2022-12-23T05:44:18.082Z,1.60
2022-12-23T05:46:45.970Z,1.20
2022-12-23T05:49:13.849Z,1.07
2022-12-23T05:51:41.740Z,1.10
2022-12-23T05:54:09.638Z,1.10
2022-12-23T05:56:37.525Z,1.40
2022-12-23T05:59:05.445Z,1.00
2022-12-23T06:01:34.797Z,1.00
2022-12-23T06:04:02.910Z,1.03
2022-12-23T06:06:30.943Z,1.43
2022-12-23T06:09:00.150Z,1.07
2022-12-23T06:11:28.264Z,0.97
2022-12-23T06:13:56.245Z,0.90
2022-12-23T06:16:24.177Z,0.80
2022-12-23T06:18:56.877Z,0.80
2022-12-23T06:21:25.579Z,0.70
2022-12-23T06:23:53.567Z,2.10
2022-12-23T06:26:21.475Z,0.73
2022-12-23T06:28:49.453Z,0.70
2022-12-23T06:31:17.386Z,0.87
2022-12-23T06:33:45.307Z,0.80
2022-12-23T06:36:14.675Z,0.80
2022-12-23T06:38:42.564Z,0.60
2022-12-23T06:41:10.511Z,0.53
2022-12-23T06:43:38.429Z,0.50
2022-12-23T06:46:06.413Z,0.50
2022-12-23T06:48:34.341Z,0.60
2022-12-23T06:51:02.242Z,0.60
2022-12-23T06:53:31.582Z,0.77
2022-12-23T06:56:02.444Z,0.53
2022-12-23T06:58:30.377Z,3.07
2022-12-23T07:00:58.320Z,3.03
2022-12-23T07:03:26.327Z,4.50
2022-12-23T07:05:54.322Z,3.13
2022-12-23T07:08:22.293Z,15.83
2022-12-23T07:10:51.537Z,34.13
2022-12-23T07:13:19.421Z,36.70
2022-12-23T07:15:47.284Z,26.57
2022-12-23T07:18:15.757Z,40.27
2022-12-23T07:20:43.694Z,24.57
2022-12-23T07:23:11.603Z,24.97
2022-12-23T07:25:39.465Z,31.30
2022-12-23T07:28:08.755Z,34.13
2022-12-23T07:30:36.838Z,25.53
2022-12-23T07:33:04.918Z,37.53
2022-12-23T07:35:32.919Z,36.20
2022-12-23T07:38:00.911Z,34.40
2022-12-23T07:40:28.846Z,43.60
2022-12-23T07:42:58.928Z,33.97
2022-12-23T07:45:28.985Z,42.30
2022-12-23T07:47:57.909Z,36.47
2022-12-23T07:50:25.944Z,39.17
2022-12-23T07:52:53.861Z,49.23
2022-12-23T07:55:21.782Z,28.73
2022-12-23T07:57:49.855Z,46.20
2022-12-23T08:00:18.469Z,34.10
2022-12-23T08:02:47.936Z,46.10
2022-12-23T08:05:16.392Z,40.00
2022-12-23T08:07:45.596Z,44.17
2022-12-23T08:10:13.511Z,42.83
2022-12-23T08:12:43.754Z,39.10
2022-12-23T08:15:11.894Z,24.50
2022-12-23T08:17:39.754Z,24.13
2022-12-23T08:20:10.175Z,48.60
2022-12-23T08:22:38.059Z,27.23
2022-12-23T08:25:06.743Z,38.03
2022-12-23T08:27:34.648Z,39.77
2022-12-23T08:30:02.549Z,29.77
2022-12-23T08:32:30.441Z,40.30
2022-12-23T08:34:58.511Z,42.13
2022-12-23T08:37:27.810Z,28.60
2022-12-23T08:39:55.707Z,30.33
2022-12-23T08:42:23.625Z,28.13
2022-12-23T08:44:51.515Z,42.20
2022-12-23T08:47:19.431Z,45.47
2022-12-23T08:49:47.364Z,44.13
2022-12-23T08:52:15.288Z,33.23
2022-12-23T08:54:44.788Z,37.87
2022-12-23T08:57:12.681Z,26.77
2022-12-23T08:59:40.862Z,51.13
2022-12-23T09:02:10.316Z,39.03
2022-12-23T09:04:38.626Z,42.23
2022-12-23T09:07:07.087Z,32.80
2022-12-23T09:09:36.474Z,41.07
2022-12-23T09:12:06.237Z,35.10
2022-12-23T09:14:34.394Z,56.90
2022-12-23T09:17:02.367Z,43.80
2022-12-23T09:19:30.834Z,28.13
2022-12-23T09:21:58.937Z,34.17
2022-12-23T09:24:27.296Z,35.63
2022-12-23T09:26:55.548Z,28.33
2022-12-23T09:29:24.918Z,48.23
2022-12-23T09:31:52.995Z,35.03
2022-12-23T09:34:20.973Z,38.33
2022-12-23T09:36:54.878Z,43.07
2022-12-23T09:39:23.525Z,30.37
2022-12-23T09:42:01.367Z,29.87
2022-12-23T09:44:37.737Z,49.60
2022-12-23T09:47:07.033Z,47.57
2022-12-23T09:49:34.934Z,37.43
2022-12-23T09:52:04.958Z,35.60
2022-12-23T09:54:34.699Z,34.50
2022-12-23T09:57:05.018Z,46.97
2022-12-23T09:59:43.119Z,40.00
2022-12-23T10:02:17.426Z,36.27
2022-12-23T10:04:48.136Z,41.17
2022-12-23T10:07:24.124Z,47.77
2022-12-23T10:09:52.714Z,49.53
2022-12-23T10:12:28.773Z,27.40
2022-12-23T10:15:00.228Z,45.77
2022-12-23T10:17:29.977Z,38.17
2022-12-23T10:19:59.503Z,45.17
2022-12-23T10:22:29.590Z,34.77
2022-12-23T10:24:57.566Z,47.87
2022-12-23T10:27:26.761Z,32.00
2022-12-23T10:29:54.726Z,28.50
2022-12-23T10:32:26.576Z,40.63
2022-12-23T10:34:58.414Z,46.57
2022-12-23T10:37:28.745Z,47.90
2022-12-23T10:40:02.962Z,40.20
2022-12-23T10:42:34.144Z,20.80
2022-12-23T10:45:25.602Z,42.03
2022-12-23T10:48:06.069Z,44.93
2022-12-23T10:50:46.142Z,36.23
2022-12-23T10:53:17.426Z,41.80
2022-12-23T10:55:45.315Z,29.57
2022-12-23T10:58:16.284Z,46.53
2022-12-23T11:00:44.858Z,40.73
2022-12-23T11:03:18.110Z,53.70
2022-12-23T11:05:46.291Z,38.30
2022-12-23T11:08:14.274Z,41.57
2022-12-23T11:10:42.203Z,31.90
2022-12-23T11:13:10.091Z,29.27
2022-12-23T11:15:38.762Z,36.03
2022-12-23T11:18:08.617Z,35.07
2022-12-23T11:20:38.019Z,29.80
2022-12-23T11:23:06.843Z,30.23
2022-12-23T11:25:36.957Z,34.10
2022-12-23T11:28:07.083Z,31.10
2022-12-23T11:30:37.951Z,44.00
2022-12-23T11:33:06.226Z,36.40
2022-12-23T11:35:35.443Z,32.53
2022-12-23T11:38:06.009Z,33.73
2022-12-23T11:40:35.460Z,27.97
2022-12-23T11:43:04.404Z,26.70
2022-12-23T11:45:34.447Z,40.50
2022-12-23T11:48:02.349Z,30.07
2022-12-23T11:50:32.951Z,31.97
2022-12-23T11:53:12.693Z,38.07
2022-12-23T11:55:46.878Z,24.57
2022-12-23T11:58:19.947Z,36.87
2022-12-23T12:00:55.889Z,31.27
2022-12-23T12:03:26.998Z,40.60
2022-12-23T12:05:56.699Z,25.60
2022-12-23T12:08:28.362Z,44.77
2022-12-23T12:11:02.441Z,31.77
2022-12-23T12:13:31.260Z,53.40
2022-12-23T12:16:06.226Z,36.30
2022-12-23T12:18:34.417Z,48.13
2022-12-23T12:21:04.967Z,38.03
2022-12-23T12:23:37.742Z,26.07
2022-12-23T12:26:07.685Z,35.87
2022-12-23T12:28:38.484Z,33.77
2022-12-23T12:31:12.898Z,28.37
2022-12-23T12:33:44.892Z,25.40
2022-12-23T12:36:15.443Z,53.43
2022-12-23T12:38:44.754Z,27.50
2022-12-23T12:41:17.042Z,32.00
2022-12-23T12:43:47.626Z,40.40
2022-12-23T12:46:21.276Z,49.30
2022-12-23T12:48:50.429Z,53.60
2022-12-23T12:51:22.403Z,37.27
2022-12-23T12:54:05.513Z,47.97
2022-12-23T12:56:36.561Z,28.13
2022-12-23T12:59:04.836Z,45.07
2022-12-23T13:01:47.217Z,37.73
2022-12-23T13:04:38.760Z,35.27
2022-12-23T13:07:09.779Z,34.00
2022-12-23T13:09:44.671Z,35.30
2022-12-23T13:12:15.838Z,35.43
2022-12-23T13:14:50.873Z,40.93
2022-12-23T13:17:20.747Z,39.20
2022-12-23T13:19:51.784Z,46.93
2022-12-23T13:22:22.434Z,29.70
2022-12-23T13:24:57.126Z,30.83
2022-12-23T13:27:28.686Z,34.17
2022-12-23T13:30:05.603Z,42.77
2022-12-23T13:32:42.629Z,44.70
2022-12-23T13:35:34.793Z,35.07
2022-12-23T13:38:08.059Z,36.00
2022-12-23T13:40:40.571Z,39.90
2022-12-23T13:43:12.460Z,32.27
2022-12-23T13:45:40.422Z,34.33
2022-12-23T13:48:17.683Z,34.33
2022-12-23T13:50:46.949Z,48.40
2022-12-23T13:53:20.454Z,30.27
2022-12-23T13:55:56.974Z,30.57
2022-12-23T13:58:25.737Z,34.80
2022-12-23T14:00:58.629Z,41.70
2022-12-23T14:03:26.838Z,38.70
2022-12-23T14:05:54.815Z,41.57
2022-12-23T14:08:28.547Z,48.33
2022-12-23T14:10:58.967Z,37.20
2022-12-23T14:13:28.577Z,42.27
2022-12-23T14:16:24.452Z,35.60
2022-12-23T14:19:36.889Z,38.80
2022-12-23T14:22:29.807Z,41.50
2022-12-23T14:25:33.295Z,38.67
2022-12-23T14:28:05.529Z,52.23
2022-12-23T14:30:35.165Z,34.80
2022-12-23T14:33:03.791Z,39.53
2022-12-23T14:35:53.654Z,42.83
2022-12-23T14:38:26.834Z,48.57
2022-12-23T14:40:59.566Z,41.70
2022-12-23T14:43:33.879Z,32.87
2022-12-23T14:46:02.081Z,40.97
2022-12-23T14:49:37.697Z,39.43
2022-12-23T14:51:55.305Z,28.27
2022-12-23T14:54:38.725Z,40.70
2022-12-23T14:57:07.615Z,36.93
2022-12-23T14:59:41.271Z,45.40
2022-12-23T15:02:17.866Z,42.47
2022-12-23T15:04:47.918Z,49.70
2022-12-23T15:07:18.228Z,29.90
2022-12-23T15:09:48.698Z,35.80
2022-12-23T15:12:20.239Z,40.50
2022-12-23T15:14:51.432Z,39.97
2022-12-23T15:17:22.651Z,35.30
2022-12-23T15:19:50.566Z,46.13
2022-12-23T15:22:24.137Z,45.00
2022-12-23T15:24:53.590Z,46.93
2022-12-23T15:27:30.275Z,60.90
2022-12-23T15:29:59.801Z,44.83
2022-12-23T15:32:27.782Z,28.90
2022-12-23T15:34:58.236Z,44.57
2022-12-23T15:37:27.899Z,47.40
2022-12-23T15:40:03.390Z,49.90
2022-12-23T15:42:40.525Z,38.83
2022-12-23T15:45:27.299Z,39.93
2022-12-23T15:47:55.318Z,45.90
2022-12-23T15:50:23.245Z,47.83
2022-12-23T15:52:51.512Z,42.47
2022-12-23T15:55:21.982Z,37.03
2022-12-23T15:57:50.907Z,22.03
2022-12-23T16:00:22.634Z,49.20
2022-12-23T16:03:10.366Z,39.03
2022-12-23T16:05:39.049Z,36.73
2022-12-23T16:08:12.000Z,39.40
2022-12-23T16:10:40.359Z,48.07
2022-12-23T16:13:15.291Z,52.40
2022-12-23T16:15:44.701Z,48.43
2022-12-23T16:18:13.035Z,41.27
2022-12-23T16:20:42.283Z,47.40
2022-12-23T16:23:10.302Z,37.83
2022-12-23T16:25:38.357Z,41.00
2022-12-23T16:28:07.810Z,35.20
2022-12-23T16:30:36.554Z,46.87
2022-12-23T16:33:06.959Z,44.47
2022-12-23T16:35:37.123Z,48.83
2022-12-23T16:38:18.709Z,33.37
2022-12-23T16:40:47.412Z,42.93
2022-12-23T16:43:15.726Z,41.30
2022-12-23T16:45:43.865Z,43.63
2022-12-23T16:48:19.210Z,41.23
2022-12-23T16:50:47.139Z,45.90
2022-12-23T16:53:15.720Z,33.13
2022-12-23T16:55:51.179Z,51.00
2022-12-23T16:58:20.545Z,38.67
2022-12-23T17:00:48.455Z,45.97
2022-12-23T17:03:18.848Z,50.93
2022-12-23T17:05:46.837Z,44.37
2022-12-23T17:08:14.894Z,34.97
2022-12-23T17:10:44.642Z,43.40
2022-12-23T17:13:13.100Z,36.07
2022-12-23T17:15:41.064Z,46.73
2022-12-23T17:18:12.679Z,51.47
2022-12-23T17:20:42.299Z,41.93
2022-12-23T17:23:10.261Z,21.43
2022-12-23T17:25:38.174Z,48.30
2022-12-23T17:28:07.196Z,44.30
2022-12-23T17:30:37.217Z,46.97
2022-12-23T17:33:05.346Z,37.67
2022-12-23T17:35:34.569Z,48.50
2022-12-23T17:38:04.035Z,57.63
2022-12-23T17:40:31.927Z,51.53
2022-12-23T17:42:59.911Z,44.00
2022-12-23T17:45:30.095Z,57.20
2022-12-23T17:47:58.092Z,48.20
2022-12-23T17:50:26.083Z,41.63
2022-12-23T17:52:54.019Z,35.47
2022-12-23T17:55:24.280Z,43.87
2022-12-23T17:57:52.224Z,32.43
2022-12-23T18:00:29.818Z,40.40
2022-12-23T18:03:01.981Z,45.43
2022-12-23T18:05:30.846Z,48.40
2022-12-23T18:07:59.633Z,42.50
2022-12-23T18:10:30.013Z,50.43
2022-12-23T18:12:58.803Z,40.47
2022-12-23T18:15:35.331Z,40.50
2022-12-23T18:18:03.440Z,35.70
2022-12-23T18:20:31.340Z,50.23
2022-12-23T18:22:59.346Z,49.93
2022-12-23T18:25:28.735Z,45.07
2022-12-23T18:27:56.611Z,29.63
2022-12-23T18:30:24.515Z,45.33
2022-12-23T18:32:52.480Z,52.83
2022-12-23T18:35:26.039Z,48.53
2022-12-23T18:37:54.233Z,51.57
2022-12-23T18:40:22.136Z,38.57
2022-12-23T18:42:51.594Z,47.13
2022-12-23T18:45:32.233Z,51.67
2022-12-23T18:48:00.149Z,43.53
2022-12-23T18:50:28.159Z,32.93
2022-12-23T18:52:56.162Z,57.33
2022-12-23T18:55:24.029Z,59.90
2022-12-23T18:57:53.311Z,33.87
2022-12-23T19:00:22.153Z,37.57
2022-12-23T19:02:50.527Z,56.80
2022-12-23T19:05:20.283Z,51.40
2022-12-23T19:07:48.580Z,50.07
2022-12-23T19:10:18.935Z,22.23
2022-12-23T19:12:47.255Z,43.30
2022-12-23T19:15:16.615Z,58.23
2022-12-23T19:17:44.601Z,45.37
2022-12-23T19:20:13.590Z,41.63
2022-12-23T19:22:41.628Z,45.47
2022-12-23T19:25:09.933Z,40.23
2022-12-23T19:27:38.844Z,34.67
2022-12-23T19:30:08.728Z,42.83
2022-12-23T19:32:38.002Z,45.47
2022-12-23T19:35:06.269Z,57.23
2022-12-23T19:37:34.204Z,36.20
2022-12-23T19:40:02.199Z,41.03
2022-12-23T19:42:30.716Z,47.60
2022-12-23T19:44:58.627Z,51.77
2022-12-23T19:47:26.495Z,48.80
2022-12-23T19:49:55.780Z,37.30
2022-12-23T19:52:23.703Z,48.97
2022-12-23T19:54:53.237Z,39.13
2022-12-23T19:57:21.150Z,48.80
2022-12-23T19:59:49.099Z,49.80
2022-12-23T20:02:17.249Z,42.23
2022-12-23T20:04:45.269Z,48.73
2022-12-23T20:07:14.968Z,32.90
2022-12-23T20:09:42.875Z,44.50
2022-12-23T20:12:10.769Z,32.37
2022-12-23T20:14:38.693Z,47.87
2022-12-23T20:17:06.544Z,46.37
2022-12-23T20:19:34.927Z,42.47
2022-12-23T20:22:04.876Z,41.53
2022-12-23T20:24:36.035Z,43.20
2022-12-23T20:27:09.305Z,38.00
2022-12-23T20:29:39.121Z,49.80
2022-12-23T20:32:07.347Z,41.30
2022-12-23T20:34:39.503Z,40.37
2022-12-23T20:37:08.323Z,55.27
2022-12-23T20:39:37.720Z,41.70
2022-12-23T20:42:05.715Z,38.60
2022-12-23T20:44:35.683Z,38.30
2022-12-23T20:47:04.410Z,43.83
2022-12-23T20:49:32.735Z,27.80
2022-12-23T20:52:00.685Z,32.73
2022-12-23T20:54:33.134Z,32.20
2022-12-23T20:57:03.932Z,42.80
2022-12-23T20:59:31.938Z,37.33
2022-12-23T21:02:00.058Z,41.23
2022-12-23T21:04:28.149Z,51.93
2022-12-23T21:06:56.140Z,46.77
2022-12-23T21:09:24.022Z,37.97
2022-12-23T21:11:51.943Z,35.93
2022-12-23T21:14:21.269Z,40.57
2022-12-23T21:16:49.330Z,41.00
2022-12-23T21:19:18.168Z,29.80
2022-12-23T21:21:46.196Z,33.17
2022-12-23T21:24:14.317Z,41.83
2022-12-23T21:26:42.265Z,32.83
2022-12-23T21:29:10.897Z,39.20
2022-12-23T21:31:40.927Z,49.20
2022-12-23T21:34:09.056Z,41.83
2022-12-23T21:36:38.649Z,45.03
2022-12-23T21:39:07.068Z,36.37
2022-12-23T21:41:39.081Z,36.77
2022-12-23T21:44:06.946Z,58.53
2022-12-23T21:46:35.223Z,28.17
2022-12-23T21:49:04.866Z,19.63
2022-12-23T21:51:39.625Z,32.30
2022-12-23T21:54:08.508Z,41.10
2022-12-23T21:56:36.581Z,31.33
2022-12-23T21:59:05.520Z,45.10
2022-12-23T22:01:33.576Z,37.70
2022-12-23T22:04:01.546Z,29.07
2022-12-23T22:06:31.860Z,28.47
2022-12-23T22:08:59.871Z,44.20
2022-12-23T22:11:30.430Z,36.60
2022-12-23T22:13:58.671Z,40.73
2022-12-23T22:16:27.488Z,70.23
2022-12-23T22:18:55.622Z,47.53
2022-12-23T22:21:25.149Z,33.40
2022-12-23T22:23:55.085Z,38.53
2022-12-23T22:26:25.608Z,48.10
2022-12-23T22:28:53.910Z,43.60
2022-12-23T22:31:31.055Z,51.07
2022-12-23T22:33:59.073Z,51.63
2022-12-23T22:36:27.077Z,50.47
2022-12-23T22:38:56.994Z,30.77
2022-12-23T22:41:25.291Z,45.97
2022-12-23T22:43:53.224Z,40.33
2022-12-23T22:46:21.222Z,38.07
2022-12-23T22:48:49.306Z,49.63
2022-12-23T22:51:18.472Z,34.93
2022-12-23T22:53:46.615Z,44.07
2022-12-23T22:56:16.622Z,36.30
2022-12-23T22:58:44.499Z,38.30
2022-12-23T23:01:20.050Z,35.60
2022-12-23T23:03:47.948Z,37.37
2022-12-23T23:06:15.968Z,36.90
2022-12-23T23:08:44.546Z,33.30
2022-12-23T23:11:12.476Z,35.77
2022-12-23T23:13:41.755Z,44.50
2022-12-23T23:16:09.717Z,35.07
2022-12-23T23:18:39.324Z,23.17
2022-12-23T23:21:07.416Z,31.57
2022-12-23T23:23:35.396Z,29.83
2022-12-23T23:26:03.486Z,27.80
2022-12-23T23:28:31.483Z,28.00
2022-12-23T23:31:32.102Z,25.97
2022-12-23T23:33:48.670Z,30.50
2022-12-23T23:36:16.705Z,28.27
2022-12-23T23:38:44.778Z,30.53
2022-12-23T23:41:15.049Z,23.10
2022-12-23T23:43:46.772Z,27.40
2022-12-23T23:46:16.126Z,34.10
2022-12-23T23:48:44.100Z,23.17
2022-12-23T23:51:12.594Z,30.40
2022-12-23T23:53:40.781Z,24.30
2022-12-23T23:56:09.592Z,26.00
2022-12-23T23:58:37.638Z,32.50
